createdAt,value
2019-03-26T00:00:08.636Z,14.30
2019-03-26T00:02:37.199Z,16.30
2019-03-26T00:05:06.589Z,16.67
2019-03-26T00:07:35.219Z,16.07
2019-03-26T00:10:04.429Z,16.93
2019-03-26T00:12:33.024Z,15.10
2019-03-26T00:15:01.586Z,15.87
2019-03-26T00:17:30.142Z,17.40
2019-03-26T00:19:58.683Z,16.93
2019-03-26T00:22:27.236Z,15.27
2019-03-26T00:24:55.935Z,16.50
2019-03-26T00:27:24.890Z,17.77
2019-03-26T00:29:53.595Z,15.17
2019-03-26T00:32:23.615Z,16.67
2019-03-26T00:34:52.338Z,16.40
2019-03-26T00:37:20.811Z,16.17
2019-03-26T00:39:49.358Z,14.93
2019-03-26T00:42:18.346Z,16.63
2019-03-26T00:44:46.946Z,16.90
2019-03-26T00:47:15.467Z,15.20
2019-03-26T00:49:44.009Z,16.97
2019-03-26T00:52:12.598Z,15.97
2019-03-26T00:54:41.134Z,17.30
2019-03-26T00:57:09.758Z,16.77
2019-03-26T00:59:38.391Z,18.50
2019-03-26T01:02:07.069Z,16.20
2019-03-26T01:04:35.722Z,16.20
2019-03-26T01:07:04.413Z,16.70
2019-03-26T01:09:33.048Z,17.10
2019-03-26T01:12:01.773Z,15.60
2019-03-26T01:14:31.577Z,16.30
2019-03-26T01:17:03.220Z,15.90
2019-03-26T01:19:31.867Z,17.47
2019-03-26T01:22:00.481Z,17.70
2019-03-26T01:24:29.123Z,16.67
2019-03-26T01:26:57.826Z,16.50
2019-03-26T01:29:26.428Z,15.60
2019-03-26T01:31:55.140Z,14.40
2019-03-26T01:34:23.711Z,15.77
2019-03-26T01:36:52.381Z,13.67
2019-03-26T01:39:20.852Z,15.83
2019-03-26T01:41:49.396Z,16.10
2019-03-26T01:44:18.063Z,14.97
2019-03-26T01:46:46.699Z,15.80
2019-03-26T01:49:15.435Z,16.77
2019-03-26T01:51:44.071Z,16.07
2019-03-26T01:54:12.599Z,16.17
2019-03-26T01:56:41.085Z,15.67
2019-03-26T01:59:09.627Z,15.30
2019-03-26T02:01:38.325Z,14.43
2019-03-26T02:04:06.834Z,15.23
2019-03-26T02:06:36.493Z,15.77
2019-03-26T02:09:06.189Z,15.37
2019-03-26T02:11:34.884Z,15.40
2019-03-26T02:14:03.569Z,14.90
2019-03-26T02:16:32.236Z,15.87
2019-03-26T02:19:00.790Z,16.30
2019-03-26T02:21:29.374Z,16.63
2019-03-26T02:23:58.067Z,15.47
2019-03-26T02:26:26.669Z,14.83
2019-03-26T02:28:55.318Z,18.03
2019-03-26T02:31:23.887Z,14.93
2019-03-26T02:33:52.538Z,15.00
2019-03-26T02:36:21.126Z,15.13
2019-03-26T02:38:49.766Z,16.43
2019-03-26T02:41:18.302Z,15.07
2019-03-26T02:43:46.772Z,15.47
2019-03-26T02:46:15.321Z,15.47
2019-03-26T02:48:43.924Z,15.83
2019-03-26T02:51:12.777Z,15.90
2019-03-26T02:53:41.414Z,13.50
2019-03-26T02:56:10.265Z,14.50
2019-03-26T02:58:38.868Z,14.73
2019-03-26T03:01:07.635Z,13.80
2019-03-26T03:03:36.195Z,13.67
2019-03-26T03:06:04.731Z,13.83
2019-03-26T03:08:33.271Z,12.50
2019-03-26T03:11:01.885Z,12.40
2019-03-26T03:13:30.483Z,13.23
2019-03-26T03:15:59.110Z,12.47
2019-03-26T03:18:27.783Z,13.47
2019-03-26T03:21:03.690Z,13.43
2019-03-26T03:23:32.411Z,13.57
2019-03-26T03:26:01.203Z,13.50
2019-03-26T03:28:29.715Z,10.70
2019-03-26T03:30:58.255Z,13.20
2019-03-26T03:33:26.944Z,12.50
2019-03-26T03:35:55.651Z,13.03
2019-03-26T03:38:24.301Z,11.17
2019-03-26T03:40:52.887Z,12.13
2019-03-26T03:43:21.439Z,12.40
2019-03-26T03:45:50.348Z,11.13
2019-03-26T03:48:19.367Z,11.80
2019-03-26T03:50:48.076Z,12.23
2019-03-26T03:53:19.258Z,12.20
2019-03-26T03:55:50.870Z,11.30
2019-03-26T03:58:22.045Z,10.87
2019-03-26T04:00:50.773Z,11.30
2019-03-26T04:03:19.342Z,11.27
2019-03-26T04:05:47.942Z,10.47
2019-03-26T04:08:16.630Z,10.67
2019-03-26T04:10:45.290Z,10.33
2019-03-26T04:13:16.132Z,10.80
2019-03-26T04:15:44.462Z,10.87
2019-03-26T04:18:13.233Z,10.33
2019-03-26T04:20:41.821Z,11.23
2019-03-26T04:23:10.490Z,11.33
2019-03-26T04:25:39.153Z,11.30
2019-03-26T04:28:07.897Z,13.33
2019-03-26T04:30:38.832Z,16.67
2019-03-26T04:33:07.157Z,16.47
2019-03-26T04:35:35.823Z,17.33
2019-03-26T04:38:04.928Z,13.90
2019-03-26T04:40:33.617Z,16.93
2019-03-26T04:43:06.171Z,16.37
2019-03-26T04:45:34.801Z,16.47
2019-03-26T04:48:03.518Z,15.77
2019-03-26T04:50:32.123Z,18.43
2019-03-26T04:53:00.782Z,16.70
2019-03-26T04:55:29.319Z,18.17
2019-03-26T04:57:57.924Z,16.87
2019-03-26T05:00:26.550Z,18.67
2019-03-26T05:02:55.156Z,19.23
2019-03-26T05:05:23.835Z,19.40
2019-03-26T05:07:52.309Z,20.13
2019-03-26T05:10:20.974Z,20.97
2019-03-26T05:12:49.513Z,19.93
2019-03-26T05:15:18.057Z,19.63
2019-03-26T05:17:46.684Z,19.13
2019-03-26T05:20:15.344Z,20.47
2019-03-26T05:22:44.065Z,19.40
2019-03-26T05:25:13.378Z,19.07
2019-03-26T05:27:45.670Z,19.53
2019-03-26T05:30:12.453Z,18.93
2019-03-26T05:32:40.993Z,19.43
2019-03-26T05:35:11.214Z,18.90
2019-03-26T05:37:39.822Z,19.33
2019-03-26T05:40:09.849Z,18.40
2019-03-26T05:42:38.752Z,17.50
2019-03-26T05:45:09.315Z,17.10
2019-03-26T05:47:37.897Z,16.50
2019-03-26T05:50:07.943Z,17.97
2019-03-26T05:52:37.293Z,17.87
2019-03-26T05:55:07.215Z,19.43
2019-03-26T05:57:37.006Z,19.23
2019-03-26T06:00:14.996Z,16.83
2019-03-26T06:02:43.647Z,18.63
2019-03-26T06:05:15.320Z,18.37
2019-03-26T06:07:43.931Z,18.97
2019-03-26T06:10:13.035Z,19.80
2019-03-26T06:12:41.685Z,17.00
2019-03-26T06:15:11.001Z,17.83
2019-03-26T06:17:39.648Z,19.10
2019-03-26T06:20:10.825Z,20.43
2019-03-26T06:22:39.759Z,19.63
2019-03-26T06:25:08.714Z,17.43
2019-03-26T06:27:37.756Z,17.73
2019-03-26T06:30:09.561Z,17.27
2019-03-26T06:32:38.238Z,18.20
2019-03-26T06:35:09.122Z,18.63
2019-03-26T06:37:38.030Z,18.13
2019-03-26T06:40:11.415Z,18.07
2019-03-26T06:42:39.968Z,19.03
2019-03-26T06:45:12.486Z,18.50
2019-03-26T06:47:41.125Z,19.97
2019-03-26T06:50:11.437Z,20.20
2019-03-26T06:52:40.058Z,19.43
2019-03-26T06:55:08.864Z,17.87
2019-03-26T06:57:37.996Z,18.43
2019-03-26T07:00:11.640Z,18.70
2019-03-26T07:02:40.465Z,21.33
2019-03-26T07:05:09.459Z,19.17
2019-03-26T07:07:38.095Z,18.00
2019-03-26T07:10:08.530Z,16.83
2019-03-26T07:12:37.070Z,19.50
2019-03-26T07:15:08.579Z,19.20
2019-03-26T07:17:37.777Z,20.37
2019-03-26T07:20:09.693Z,18.97
2019-03-26T07:22:38.766Z,20.30
2019-03-26T07:25:09.467Z,18.47
2019-03-26T07:27:38.416Z,17.93
2019-03-26T07:30:09.684Z,20.10
2019-03-26T07:32:38.292Z,19.00
2019-03-26T07:35:08.277Z,17.60
2019-03-26T07:37:45.302Z,19.90
2019-03-26T07:40:08.297Z,20.47
2019-03-26T07:42:36.834Z,17.67
2019-03-26T07:45:09.440Z,20.60
2019-03-26T07:47:38.065Z,20.10
2019-03-26T07:50:08.018Z,19.00
2019-03-26T07:52:36.576Z,20.93
2019-03-26T07:55:07.379Z,19.87
2019-03-26T07:57:36.179Z,18.40
2019-03-26T08:00:11.090Z,19.47
2019-03-26T08:02:39.774Z,19.47
2019-03-26T08:05:09.763Z,19.43
2019-03-26T08:07:38.369Z,20.30
2019-03-26T08:10:10.698Z,21.60
2019-03-26T08:12:39.335Z,19.50
2019-03-26T08:15:08.968Z,20.50
2019-03-26T08:17:37.504Z,19.87
2019-03-26T08:20:07.995Z,18.90
2019-03-26T08:22:36.548Z,18.17
2019-03-26T08:25:07.459Z,17.63
2019-03-26T08:27:36.069Z,17.27
2019-03-26T08:30:08.779Z,16.37
2019-03-26T08:32:37.462Z,17.87
2019-03-26T08:35:07.108Z,17.97
2019-03-26T08:37:35.715Z,19.00
2019-03-26T08:40:07.461Z,18.80
2019-03-26T08:42:35.997Z,19.07
2019-03-26T08:45:07.347Z,20.17
2019-03-26T08:47:36.552Z,21.27
2019-03-26T08:50:07.162Z,18.67
2019-03-26T08:52:35.761Z,17.23
2019-03-26T08:55:06.159Z,18.10
2019-03-26T08:57:34.768Z,21.30
2019-03-26T09:00:03.732Z,19.10
2019-03-26T09:02:32.197Z,19.60
2019-03-26T09:05:00.676Z,18.63
2019-03-26T09:07:29.292Z,18.53
2019-03-26T09:09:57.840Z,18.63
2019-03-26T09:12:26.445Z,20.85
2019-03-26T09:14:54.986Z,19.80
2019-03-26T09:17:23.598Z,20.40
2019-03-26T09:19:52.215Z,21.75
2019-03-26T09:22:20.745Z,19.50
2019-03-26T09:24:51.533Z,19.83
2019-03-26T09:27:20.061Z,19.93
2019-03-26T09:29:48.700Z,20.23
2019-03-26T09:32:17.228Z,19.85
2019-03-26T09:34:45.815Z,21.30
2019-03-26T09:37:16.074Z,20.23
2019-03-26T09:39:44.545Z,22.00
2019-03-26T09:42:13.080Z,20.05
2019-03-26T09:44:41.547Z,19.32
2019-03-26T09:47:16.098Z,20.45
2019-03-26T09:49:40.347Z,19.07
2019-03-26T09:52:08.813Z,20.02
2019-03-26T09:54:37.413Z,19.77
2019-03-26T09:57:06.019Z,19.00
2019-03-26T09:59:34.553Z,21.13
2019-03-26T10:02:03.099Z,20.10
2019-03-26T10:04:31.759Z,18.10
2019-03-26T10:07:00.365Z,18.80
2019-03-26T10:09:28.979Z,19.30
2019-03-26T10:11:59.455Z,20.20
2019-03-26T10:14:28.006Z,23.50
2019-03-26T10:16:56.627Z,19.35
2019-03-26T10:19:25.167Z,24.10
2019-03-26T10:21:54.630Z,22.03
2019-03-26T10:24:23.167Z,21.47
2019-03-26T10:26:51.984Z,19.20
2019-03-26T10:29:30.213Z,17.92
2019-03-26T10:31:50.875Z,17.87
2019-03-26T10:34:19.680Z,19.67
2019-03-26T10:36:48.786Z,17.23
2019-03-26T10:39:17.394Z,17.05
2019-03-26T10:41:46.021Z,17.05
2019-03-26T10:44:14.996Z,15.48
2019-03-26T10:46:44.643Z,15.90
2019-03-26T10:49:13.391Z,15.83
2019-03-26T10:51:42.032Z,14.25
2019-03-26T10:54:10.654Z,14.75
2019-03-26T10:56:39.261Z,16.05
2019-03-26T10:59:07.889Z,14.35
2019-03-26T11:01:36.500Z,15.25
2019-03-26T11:04:07.748Z,14.38
2019-03-26T11:06:35.495Z,14.33
2019-03-26T11:09:18.797Z,15.13
2019-03-26T11:11:35.388Z,14.38
2019-03-26T11:14:04.291Z,13.90
2019-03-26T11:16:32.923Z,12.70
2019-03-26T11:19:01.462Z,15.25
2019-03-26T11:21:30.044Z,12.75
2019-03-26T11:23:58.583Z,13.68
2019-03-26T11:26:27.193Z,12.35
2019-03-26T11:28:55.796Z,13.40
2019-03-26T11:31:24.398Z,12.45
2019-03-26T11:33:52.947Z,12.90
2019-03-26T11:36:21.476Z,11.08
2019-03-26T11:38:50.126Z,11.93
2019-03-26T11:41:18.721Z,12.20
2019-03-26T11:43:47.365Z,11.73
2019-03-26T11:46:16.002Z,12.18
2019-03-26T11:48:44.639Z,12.63
2019-03-26T11:51:13.248Z,12.30
2019-03-26T11:53:41.881Z,12.00
2019-03-26T11:56:10.515Z,12.95
2019-03-26T11:58:39.043Z,13.13
2019-03-26T12:01:07.779Z,13.62
2019-03-26T12:03:36.387Z,12.33
2019-03-26T12:06:05.014Z,12.33
2019-03-26T12:08:34.871Z,11.43
2019-03-26T12:11:03.407Z,10.90
2019-03-26T12:13:31.970Z,11.68
2019-03-26T12:16:00.500Z,14.60
2019-03-26T12:18:29.041Z,13.22
2019-03-26T12:20:57.511Z,10.55
2019-03-26T12:23:26.107Z,10.32
2019-03-26T12:25:55.223Z,10.98
2019-03-26T12:28:23.802Z,10.60
2019-03-26T12:30:52.481Z,11.22
2019-03-26T12:33:21.042Z,11.85
2019-03-26T12:35:52.484Z,12.13
2019-03-26T12:38:21.398Z,11.45
2019-03-26T12:40:53.488Z,11.33
2019-03-26T12:43:22.229Z,11.90
2019-03-26T12:45:52.342Z,13.62
2019-03-26T12:48:21.091Z,12.43
2019-03-26T12:50:49.690Z,12.73
2019-03-26T12:53:18.300Z,12.60
2019-03-26T12:55:46.841Z,14.20
2019-03-26T12:58:15.469Z,11.68
2019-03-26T13:00:44.051Z,12.30
2019-03-26T13:03:12.657Z,12.53
2019-03-26T13:05:41.196Z,14.83
2019-03-26T13:08:09.843Z,12.80
2019-03-26T13:10:38.541Z,12.90
2019-03-26T13:13:07.148Z,13.03
2019-03-26T13:15:35.762Z,12.97
2019-03-26T13:18:04.376Z,12.03
2019-03-26T13:20:32.966Z,11.57
2019-03-26T13:23:02.695Z,12.15
2019-03-26T13:25:31.303Z,13.13
2019-03-26T13:27:59.851Z,12.75
2019-03-26T13:30:28.452Z,13.05
2019-03-26T13:32:57.026Z,12.35
2019-03-26T13:35:25.655Z,11.35
2019-03-26T13:37:54.278Z,11.95
2019-03-26T13:40:27.489Z,10.40
2019-03-26T13:42:53.257Z,12.18
2019-03-26T13:45:21.831Z,12.20
2019-03-26T13:47:50.374Z,11.08
2019-03-26T13:50:33.992Z,10.35
2019-03-26T13:52:50.041Z,10.60
2019-03-26T13:55:19.448Z,10.28
2019-03-26T13:57:48.083Z,10.82
2019-03-26T14:00:19.600Z,10.55
2019-03-26T14:02:48.199Z,11.53
2019-03-26T14:05:27.099Z,13.45
2019-03-26T14:07:55.703Z,10.78
2019-03-26T14:10:24.574Z,11.57
2019-03-26T14:12:53.189Z,12.30
2019-03-26T14:15:24.335Z,10.32
2019-03-26T14:17:52.954Z,10.00
2019-03-26T14:20:21.955Z,10.85
2019-03-26T14:22:50.595Z,11.20
2019-03-26T14:25:19.211Z,10.32
2019-03-26T14:27:47.845Z,10.95
2019-03-26T14:30:20.626Z,10.03
2019-03-26T14:32:49.054Z,10.15
2019-03-26T14:35:19.967Z,9.95
2019-03-26T14:37:51.470Z,9.98
2019-03-26T14:40:18.967Z,10.18
2019-03-26T14:42:47.503Z,8.73
2019-03-26T14:45:16.105Z,9.53
2019-03-26T14:47:44.709Z,10.78
2019-03-26T14:50:16.680Z,9.88
2019-03-26T14:52:45.182Z,11.28
2019-03-26T14:55:13.787Z,11.60
2019-03-26T14:57:42.337Z,11.90
2019-03-26T15:00:11.619Z,11.60
2019-03-26T15:02:41.766Z,10.18
2019-03-26T15:05:11.330Z,10.50
2019-03-26T15:07:39.945Z,11.63
2019-03-26T15:10:09.123Z,11.90
2019-03-26T15:12:37.768Z,11.00
2019-03-26T15:15:07.593Z,11.35
2019-03-26T15:17:36.203Z,9.80
2019-03-26T15:20:07.353Z,10.83
2019-03-26T15:22:35.976Z,10.25
2019-03-26T15:25:10.545Z,9.83
2019-03-26T15:27:39.006Z,8.78
2019-03-26T15:30:09.819Z,10.08
2019-03-26T15:32:38.380Z,9.55
2019-03-26T15:35:07.861Z,9.90
2019-03-26T15:37:36.465Z,8.25
2019-03-26T15:40:08.033Z,9.90
2019-03-26T15:42:36.568Z,10.78
2019-03-26T15:45:08.104Z,10.98
2019-03-26T15:47:36.708Z,9.50
2019-03-26T15:50:07.010Z,9.58
2019-03-26T15:52:35.624Z,11.00
2019-03-26T15:55:05.332Z,11.25
2019-03-26T15:57:33.941Z,11.22
2019-03-26T16:00:02.675Z,11.08
2019-03-26T16:02:31.239Z,12.25
2019-03-26T16:04:59.777Z,10.65
2019-03-26T16:07:28.275Z,11.83
2019-03-26T16:09:56.905Z,11.90
2019-03-26T16:12:25.555Z,11.22
2019-03-26T16:14:54.188Z,12.40
2019-03-26T16:17:22.749Z,11.95
2019-03-26T16:19:51.373Z,11.80
2019-03-26T16:22:19.901Z,12.33
2019-03-26T16:24:48.540Z,11.35
2019-03-26T16:27:17.196Z,11.12
2019-03-26T16:29:45.678Z,10.30
2019-03-26T16:32:14.297Z,11.20
2019-03-26T16:34:42.774Z,10.53
2019-03-26T16:37:11.374Z,9.75
2019-03-26T16:39:40.291Z,10.97
2019-03-26T16:42:08.826Z,11.93
2019-03-26T16:44:37.500Z,10.93
2019-03-26T16:47:06.040Z,10.38
2019-03-26T16:49:34.579Z,9.43
2019-03-26T16:52:06.301Z,10.85
2019-03-26T16:54:34.837Z,10.10
2019-03-26T16:57:03.433Z,9.00
2019-03-26T16:59:32.125Z,9.40
2019-03-26T17:02:00.733Z,10.65
2019-03-26T17:04:29.318Z,10.85
2019-03-26T17:06:58.031Z,10.90
2019-03-26T17:09:26.576Z,10.05
2019-03-26T17:12:03.243Z,10.20
2019-03-26T17:14:25.618Z,9.70
2019-03-26T17:16:54.166Z,11.20
2019-03-26T17:19:22.772Z,10.93
2019-03-26T17:21:51.392Z,11.12
2019-03-26T17:24:19.994Z,13.18
2019-03-26T17:26:48.540Z,10.95
2019-03-26T17:29:17.072Z,10.45
2019-03-26T17:31:45.696Z,11.53
2019-03-26T17:34:14.297Z,11.53
2019-03-26T17:36:42.974Z,11.33
2019-03-26T17:39:11.448Z,11.63
2019-03-26T17:41:40.058Z,10.50
2019-03-26T17:44:08.654Z,11.35
2019-03-26T17:46:37.267Z,13.53
2019-03-26T17:49:05.880Z,13.80
2019-03-26T17:51:34.518Z,13.90
2019-03-26T17:54:03.186Z,11.53
2019-03-26T17:56:31.783Z,12.70
2019-03-26T17:59:00.392Z,15.23
2019-03-26T18:01:29.298Z,16.40
2019-03-26T18:03:57.976Z,18.87
2019-03-26T18:06:26.587Z,15.87
2019-03-26T18:08:55.244Z,13.40
2019-03-26T18:11:23.849Z,15.00
2019-03-26T18:13:52.565Z,13.67
2019-03-26T18:16:21.085Z,14.37
2019-03-26T18:18:49.819Z,16.87
2019-03-26T18:21:18.459Z,16.00
2019-03-26T18:23:47.090Z,12.93
2019-03-26T18:26:15.725Z,12.80
2019-03-26T18:28:44.340Z,13.60
2019-03-26T18:31:13.022Z,13.80
2019-03-26T18:33:41.678Z,13.60
2019-03-26T18:36:11.738Z,13.67
2019-03-26T18:38:40.404Z,13.53
2019-03-26T18:41:09.125Z,14.83
2019-03-26T18:43:37.749Z,15.00
2019-03-26T18:46:06.353Z,14.90
2019-03-26T18:48:36.175Z,14.33
2019-03-26T18:51:04.856Z,13.97
2019-03-26T18:53:33.474Z,13.47
2019-03-26T18:56:02.159Z,14.03
2019-03-26T18:58:30.800Z,14.23
2019-03-26T19:00:59.344Z,13.10
2019-03-26T19:03:27.973Z,13.53
2019-03-26T19:05:56.556Z,12.00
2019-03-26T19:08:25.213Z,11.90
2019-03-26T19:10:53.792Z,11.17
2019-03-26T19:13:22.401Z,11.47
2019-03-26T19:15:50.981Z,12.50
2019-03-26T19:18:19.708Z,13.53
2019-03-26T19:21:00.970Z,12.27
2019-03-26T19:23:18.650Z,14.00
2019-03-26T19:25:47.238Z,12.87
2019-03-26T19:28:15.847Z,13.07
2019-03-26T19:30:44.460Z,13.17
2019-03-26T19:33:13.108Z,10.53
2019-03-26T19:35:41.719Z,10.33
2019-03-26T19:38:10.253Z,11.90
2019-03-26T19:40:38.910Z,13.77
2019-03-26T19:43:11.037Z,11.43
2019-03-26T19:45:37.803Z,11.10
2019-03-26T19:48:06.507Z,11.07
2019-03-26T19:50:35.148Z,11.80
2019-03-26T19:53:07.193Z,12.53
2019-03-26T19:55:36.271Z,12.70
2019-03-26T19:58:04.946Z,12.53
2019-03-26T20:00:33.713Z,11.80
2019-03-26T20:03:02.330Z,10.30
2019-03-26T20:05:30.957Z,10.07
2019-03-26T20:07:59.564Z,8.93
2019-03-26T20:10:28.401Z,9.47
2019-03-26T20:12:57.048Z,11.67
2019-03-26T20:15:25.733Z,11.37
2019-03-26T20:17:54.421Z,10.40
2019-03-26T20:20:23.535Z,12.17
2019-03-26T20:22:52.254Z,9.97
2019-03-26T20:25:20.869Z,10.73
2019-03-26T20:27:54.970Z,9.93
2019-03-26T20:30:23.869Z,10.50
2019-03-26T20:32:52.525Z,11.80
2019-03-26T20:35:21.136Z,12.77
2019-03-26T20:37:49.781Z,10.83
2019-03-26T20:40:18.511Z,11.10
2019-03-26T20:42:47.143Z,12.30
2019-03-26T20:45:16.261Z,10.70
2019-03-26T20:47:44.875Z,12.30
2019-03-26T20:50:14.004Z,13.13
2019-03-26T20:52:42.656Z,13.77
2019-03-26T20:55:12.869Z,12.87
2019-03-26T20:57:41.615Z,13.60
2019-03-26T21:00:15.705Z,14.30
2019-03-26T21:02:44.244Z,13.13
2019-03-26T21:05:12.950Z,14.83
2019-03-26T21:07:41.524Z,14.23
2019-03-26T21:10:10.846Z,15.03
2019-03-26T21:12:39.594Z,15.20
2019-03-26T21:15:10.492Z,14.87
2019-03-26T21:17:39.115Z,15.10
2019-03-26T21:20:09.311Z,15.07
2019-03-26T21:22:37.877Z,17.93
2019-03-26T21:25:08.639Z,15.30
2019-03-26T21:27:37.411Z,15.40
2019-03-26T21:30:11.441Z,15.87
2019-03-26T21:32:39.696Z,14.33
2019-03-26T21:35:08.850Z,15.33
2019-03-26T21:37:39.363Z,14.33
2019-03-26T21:40:10.510Z,14.90
2019-03-26T21:42:39.403Z,14.53
2019-03-26T21:45:09.914Z,11.57
2019-03-26T21:47:39.513Z,10.07
2019-03-26T21:50:08.840Z,10.07
2019-03-26T21:52:37.414Z,10.20
2019-03-26T21:55:13.106Z,10.43
2019-03-26T21:57:40.031Z,7.73
2019-03-26T22:00:09.505Z,9.33
2019-03-26T22:02:38.110Z,9.00
2019-03-26T22:05:12.752Z,9.13
2019-03-26T22:07:38.722Z,9.20
2019-03-26T22:10:08.749Z,7.53
2019-03-26T22:12:37.392Z,9.60
2019-03-26T22:15:08.924Z,9.33
2019-03-26T22:17:37.708Z,8.40
2019-03-26T22:20:08.449Z,8.20
2019-03-26T22:22:37.189Z,7.50
2019-03-26T22:25:08.976Z,9.23
2019-03-26T22:27:37.603Z,8.63
2019-03-26T22:30:09.379Z,7.90
2019-03-26T22:32:38.176Z,7.53
2019-03-26T22:35:08.662Z,8.23
2019-03-26T22:37:37.324Z,7.67
2019-03-26T22:40:08.005Z,8.63
2019-03-26T22:42:36.892Z,8.73
2019-03-26T22:45:12.387Z,7.80
2019-03-26T22:47:41.025Z,8.20
2019-03-26T22:50:11.027Z,7.83
2019-03-26T22:52:39.647Z,8.93
2019-03-26T22:55:10.247Z,6.83
2019-03-26T22:57:39.188Z,6.30
2019-03-26T23:00:13.306Z,6.93
2019-03-26T23:02:41.976Z,5.80
2019-03-26T23:05:11.448Z,6.40
2019-03-26T23:07:40.173Z,7.83
2019-03-26T23:10:10.017Z,6.27
2019-03-26T23:12:38.724Z,6.33
2019-03-26T23:15:13.045Z,9.27
2019-03-26T23:17:43.132Z,7.87
2019-03-26T23:20:11.933Z,6.80
2019-03-26T23:22:40.527Z,6.33
2019-03-26T23:25:09.544Z,5.10
2019-03-26T23:27:38.145Z,6.13
2019-03-26T23:30:08.366Z,5.77
2019-03-26T23:32:36.992Z,6.30
2019-03-26T23:35:05.698Z,5.40
2019-03-26T23:37:34.289Z,6.40
2019-03-26T23:40:02.870Z,6.57
2019-03-26T23:42:31.423Z,6.50
2019-03-26T23:45:01.242Z,6.67
2019-03-26T23:47:29.793Z,5.97
2019-03-26T23:49:58.317Z,6.47
2019-03-26T23:52:26.852Z,6.20
2019-03-26T23:54:55.384Z,5.93
2019-03-26T23:57:23.870Z,5.90
2019-03-26T23:59:52.468Z,5.87
